sensor_id;sensor_type;location;lat;lon;timestamp;P1;durP1;ratioP1;P2;durP2;ratioP2
33162;SDS011;29282;45.656;11.302;2023-07-13T00:01:38;2.53;;;2.28;;
33162;SDS011;29282;45.656;11.302;2023-07-13T00:04:08;3.55;;;2.72;;
33162;SDS011;29282;45.656;11.302;2023-07-13T00:06:39;3.55;;;2.70;;
33162;SDS011;29282;45.656;11.302;2023-07-13T00:09:05;2.92;;;2.50;;
33162;SDS011;29282;45.656;11.302;2023-07-13T00:11:31;3.03;;;2.35;;
33162;SDS011;29282;45.656;11.302;2023-07-13T00:14:00;3.08;;;2.55;;
33162;SDS011;29282;45.656;11.302;2023-07-13T00:16:29;3.55;;;2.45;;
33162;SDS011;29282;45.656;11.302;2023-07-13T00:18:55;4.85;;;2.70;;
33162;SDS011;29282;45.656;11.302;2023-07-13T00:21:41;3.03;;;2.53;;
33162;SDS011;29282;45.656;11.302;2023-07-13T00:24:12;3.53;;;2.33;;
33162;SDS011;29282;45.656;11.302;2023-07-13T00:26:48;4.50;;;2.78;;
33162;SDS011;29282;45.656;11.302;2023-07-13T00:29:15;5.68;;;2.83;;
33162;SDS011;29282;45.656;11.302;2023-07-13T00:31:47;4.03;;;2.53;;
33162;SDS011;29282;45.656;11.302;2023-07-13T00:34:16;4.05;;;2.35;;
33162;SDS011;29282;45.656;11.302;2023-07-13T00:36:45;3.03;;;2.38;;
33162;SDS011;29282;45.656;11.302;2023-07-13T00:39:12;4.85;;;2.53;;
33162;SDS011;29282;45.656;11.302;2023-07-13T00:41:43;4.75;;;2.72;;
33162;SDS011;29282;45.656;11.302;2023-07-13T00:44:15;3.05;;;2.30;;
33162;SDS011;29282;45.656;11.302;2023-07-13T00:46:49;2.45;;;1.95;;
33162;SDS011;29282;45.656;11.302;2023-07-13T00:49:19;4.03;;;2.30;;
33162;SDS011;29282;45.656;11.302;2023-07-13T00:52:06;3.90;;;2.53;;
33162;SDS011;29282;45.656;11.302;2023-07-13T00:54:41;3.47;;;2.67;;
33162;SDS011;29282;45.656;11.302;2023-07-13T00:57:16;3.85;;;2.50;;
33162;SDS011;29282;45.656;11.302;2023-07-13T00:59:52;2.97;;;2.45;;
33162;SDS011;29282;45.656;11.302;2023-07-13T01:02:42;2.80;;;2.35;;
33162;SDS011;29282;45.656;11.302;2023-07-13T01:07:57;3.00;;;2.20;;
33162;SDS011;29282;45.656;11.302;2023-07-13T01:10:32;3.83;;;2.83;;
33162;SDS011;29282;45.656;11.302;2023-07-13T01:13:08;2.90;;;2.22;;
33162;SDS011;29282;45.656;11.302;2023-07-13T01:15:47;3.67;;;2.25;;
33162;SDS011;29282;45.656;11.302;2023-07-13T01:18:29;3.47;;;2.50;;
33162;SDS011;29282;45.656;11.302;2023-07-13T01:20:58;3.67;;;2.20;;
33162;SDS011;29282;45.656;11.302;2023-07-13T01:23:34;3.58;;;2.50;;
33162;SDS011;29282;45.656;11.302;2023-07-13T01:26:06;2.67;;;2.28;;
33162;SDS011;29282;45.656;11.302;2023-07-13T01:28:53;3.63;;;2.28;;
33162;SDS011;29282;45.656;11.302;2023-07-13T01:31:21;3.70;;;2.42;;
33162;SDS011;29282;45.656;11.302;2023-07-13T01:33:47;2.47;;;2.28;;
33162;SDS011;29282;45.656;11.302;2023-07-13T01:36:19;3.42;;;2.42;;
33162;SDS011;29282;45.656;11.302;2023-07-13T01:38:46;3.60;;;2.40;;
33162;SDS011;29282;45.656;11.302;2023-07-13T01:41:15;3.08;;;2.28;;
33162;SDS011;29282;45.656;11.302;2023-07-13T01:43:47;3.08;;;2.40;;
33162;SDS011;29282;45.656;11.302;2023-07-13T01:46:21;2.55;;;2.35;;
33162;SDS011;29282;45.656;11.302;2023-07-13T01:48:50;2.78;;;2.53;;
33162;SDS011;29282;45.656;11.302;2023-07-13T01:51:22;3.08;;;2.42;;
33162;SDS011;29282;45.656;11.302;2023-07-13T01:54:30;3.50;;;2.38;;
33162;SDS011;29282;45.656;11.302;2023-07-13T01:56:56;3.75;;;2.22;;
33162;SDS011;29282;45.656;11.302;2023-07-13T01:59:24;2.63;;;2.28;;
33162;SDS011;29282;45.656;11.302;2023-07-13T02:01:50;2.40;;;2.10;;
33162;SDS011;29282;45.656;11.302;2023-07-13T02:04:16;2.67;;;2.17;;
33162;SDS011;29282;45.656;11.302;2023-07-13T02:06:45;2.63;;;2.25;;
33162;SDS011;29282;45.656;11.302;2023-07-13T02:09:17;3.47;;;2.42;;
33162;SDS011;29282;45.656;11.302;2023-07-13T02:11:52;2.72;;;2.10;;
33162;SDS011;29282;45.656;11.302;2023-07-13T02:14:18;2.83;;;2.40;;
33162;SDS011;29282;45.656;11.302;2023-07-13T02:16:46;2.53;;;2.28;;
33162;SDS011;29282;45.656;11.302;2023-07-13T02:19:18;2.50;;;2.30;;
33162;SDS011;29282;45.656;11.302;2023-07-13T02:21:44;2.78;;;2.20;;
33162;SDS011;29282;45.656;11.302;2023-07-13T02:24:10;3.17;;;2.20;;
33162;SDS011;29282;45.656;11.302;2023-07-13T02:26:44;3.08;;;2.13;;
33162;SDS011;29282;45.656;11.302;2023-07-13T02:29:15;2.75;;;2.20;;
33162;SDS011;29282;45.656;11.302;2023-07-13T02:31:41;3.53;;;2.15;;
33162;SDS011;29282;45.656;11.302;2023-07-13T02:34:07;3.15;;;2.38;;
33162;SDS011;29282;45.656;11.302;2023-07-13T02:36:39;2.33;;;2.13;;
33162;SDS011;29282;45.656;11.302;2023-07-13T02:39:11;3.35;;;2.28;;
33162;SDS011;29282;45.656;11.302;2023-07-13T02:41:44;3.45;;;2.20;;
33162;SDS011;29282;45.656;11.302;2023-07-13T02:44:14;3.60;;;2.33;;
33162;SDS011;29282;45.656;11.302;2023-07-13T02:46:43;3.15;;;2.10;;
33162;SDS011;29282;45.656;11.302;2023-07-13T02:49:11;2.63;;;2.42;;
33162;SDS011;29282;45.656;11.302;2023-07-13T02:51:52;3.30;;;2.25;;
33162;SDS011;29282;45.656;11.302;2023-07-13T02:54:24;2.72;;;1.90;;
33162;SDS011;29282;45.656;11.302;2023-07-13T02:57:01;2.70;;;2.20;;
33162;SDS011;29282;45.656;11.302;2023-07-13T02:59:29;2.75;;;2.00;;
33162;SDS011;29282;45.656;11.302;2023-07-13T03:01:55;2.33;;;2.13;;
33162;SDS011;29282;45.656;11.302;2023-07-13T03:04:28;2.90;;;2.40;;
33162;SDS011;29282;45.656;11.302;2023-07-13T03:07:00;2.75;;;2.40;;
33162;SDS011;29282;45.656;11.302;2023-07-13T03:09:29;2.35;;;2.15;;
33162;SDS011;29282;45.656;11.302;2023-07-13T03:12:04;2.30;;;1.90;;
33162;SDS011;29282;45.656;11.302;2023-07-13T03:14:31;2.95;;;2.10;;
33162;SDS011;29282;45.656;11.302;2023-07-13T03:16:59;2.63;;;2.20;;
33162;SDS011;29282;45.656;11.302;2023-07-13T03:19:28;2.10;;;1.80;;
33162;SDS011;29282;45.656;11.302;2023-07-13T03:21:57;2.47;;;2.28;;
33162;SDS011;29282;45.656;11.302;2023-07-13T03:24:23;2.30;;;2.10;;
33162;SDS011;29282;45.656;11.302;2023-07-13T03:26:51;2.75;;;2.10;;
33162;SDS011;29282;45.656;11.302;2023-07-13T03:29:16;2.63;;;1.90;;
33162;SDS011;29282;45.656;11.302;2023-07-13T03:31:45;2.67;;;2.35;;
33162;SDS011;29282;45.656;11.302;2023-07-13T03:34:14;2.58;;;2.05;;
33162;SDS011;29282;45.656;11.302;2023-07-13T03:36:42;2.10;;;1.90;;
33162;SDS011;29282;45.656;11.302;2023-07-13T03:39:09;2.40;;;1.98;;
33162;SDS011;29282;45.656;11.302;2023-07-13T03:41:49;2.55;;;2.00;;
33162;SDS011;29282;45.656;11.302;2023-07-13T03:44:23;2.85;;;2.20;;
33162;SDS011;29282;45.656;11.302;2023-07-13T03:46:52;2.72;;;1.83;;
33162;SDS011;29282;45.656;11.302;2023-07-13T03:49:21;2.63;;;2.05;;
33162;SDS011;29282;45.656;11.302;2023-07-13T03:51:53;2.58;;;2.13;;
33162;SDS011;29282;45.656;11.302;2023-07-13T03:54:28;2.30;;;1.90;;
33162;SDS011;29282;45.656;11.302;2023-07-13T03:56:58;2.30;;;2.10;;
33162;SDS011;29282;45.656;11.302;2023-07-13T03:59:24;2.10;;;1.90;;
33162;SDS011;29282;45.656;11.302;2023-07-13T04:01:49;4.15;;;2.05;;
33162;SDS011;29282;45.656;11.302;2023-07-13T04:04:23;1.58;;;1.48;;
33162;SDS011;29282;45.656;11.302;2023-07-13T04:06:49;2.10;;;1.90;;
33162;SDS011;29282;45.656;11.302;2023-07-13T04:09:18;2.42;;;1.73;;
33162;SDS011;29282;45.656;11.302;2023-07-13T04:11:46;2.08;;;1.73;;
33162;SDS011;29282;45.656;11.302;2023-07-13T04:14:21;2.65;;;2.17;;
33162;SDS011;29282;45.656;11.302;2023-07-13T04:16:54;2.03;;;1.83;;
33162;SDS011;29282;45.656;11.302;2023-07-13T04:19:29;3.50;;;2.08;;
33162;SDS011;29282;45.656;11.302;2023-07-13T04:21:55;2.97;;;1.85;;
33162;SDS011;29282;45.656;11.302;2023-07-13T04:24:24;1.90;;;1.65;;
33162;SDS011;29282;45.656;11.302;2023-07-13T04:26:50;2.30;;;2.00;;
33162;SDS011;29282;45.656;11.302;2023-07-13T04:29:27;2.13;;;1.92;;
33162;SDS011;29282;45.656;11.302;2023-07-13T04:31:52;2.15;;;1.95;;
33162;SDS011;29282;45.656;11.302;2023-07-13T04:34:24;2.55;;;1.95;;
33162;SDS011;29282;45.656;11.302;2023-07-13T04:36:55;2.55;;;1.83;;
33162;SDS011;29282;45.656;11.302;2023-07-13T04:39:21;2.40;;;2.20;;
33162;SDS011;29282;45.656;11.302;2023-07-13T04:41:49;2.00;;;1.75;;
33162;SDS011;29282;45.656;11.302;2023-07-13T04:44:21;2.10;;;1.90;;
33162;SDS011;29282;45.656;11.302;2023-07-13T04:46:50;2.05;;;1.85;;
33162;SDS011;29282;45.656;11.302;2023-07-13T04:49:21;2.38;;;1.85;;
33162;SDS011;29282;45.656;11.302;2023-07-13T04:51:47;2.28;;;1.70;;
33162;SDS011;29282;45.656;11.302;2023-07-13T04:54:13;2.58;;;1.90;;
33162;SDS011;29282;45.656;11.302;2023-07-13T04:56:38;2.20;;;1.75;;
33162;SDS011;29282;45.656;11.302;2023-07-13T04:59:04;2.13;;;1.70;;
33162;SDS011;29282;45.656;11.302;2023-07-13T05:01:33;1.90;;;1.80;;
33162;SDS011;29282;45.656;11.302;2023-07-13T05:04:02;2.92;;;1.50;;
33162;SDS011;29282;45.656;11.302;2023-07-13T05:06:28;2.30;;;2.00;;
33162;SDS011;29282;45.656;11.302;2023-07-13T05:08:58;2.00;;;1.80;;
33162;SDS011;29282;45.656;11.302;2023-07-13T05:11:27;1.77;;;1.67;;
33162;SDS011;29282;45.656;11.302;2023-07-13T05:13:52;2.60;;;1.80;;
33162;SDS011;29282;45.656;11.302;2023-07-13T05:16:21;1.80;;;1.67;;
33162;SDS011;29282;45.656;11.302;2023-07-13T05:18:47;1.63;;;1.50;;
33162;SDS011;29282;45.656;11.302;2023-07-13T05:21:15;1.92;;;1.83;;
33162;SDS011;29282;45.656;11.302;2023-07-13T05:23:44;2.00;;;1.80;;
33162;SDS011;29282;45.656;11.302;2023-07-13T05:26:10;2.20;;;1.80;;
33162;SDS011;29282;45.656;11.302;2023-07-13T05:28:36;2.85;;;1.85;;
33162;SDS011;29282;45.656;11.302;2023-07-13T05:31:06;2.25;;;1.80;;
33162;SDS011;29282;45.656;11.302;2023-07-13T05:33:36;1.92;;;1.70;;
33162;SDS011;29282;45.656;11.302;2023-07-13T05:36:02;2.05;;;1.80;;
33162;SDS011;29282;45.656;11.302;2023-07-13T05:38:29;3.13;;;1.75;;
33162;SDS011;29282;45.656;11.302;2023-07-13T05:41:00;5.07;;;1.90;;
33162;SDS011;29282;45.656;11.302;2023-07-13T05:43:35;2.03;;;1.80;;
33162;SDS011;29282;45.656;11.302;2023-07-13T05:46:01;1.95;;;1.75;;
33162;SDS011;29282;45.656;11.302;2023-07-13T05:48:27;2.35;;;1.73;;
33162;SDS011;29282;45.656;11.302;2023-07-13T05:51:02;4.80;;;2.15;;
33162;SDS011;29282;45.656;11.302;2023-07-13T05:53:33;3.88;;;1.48;;
33162;SDS011;29282;45.656;11.302;2023-07-13T05:56:00;2.22;;;1.40;;
33162;SDS011;29282;45.656;11.302;2023-07-13T05:58:26;9.57;;;1.88;;
33162;SDS011;29282;45.656;11.302;2023-07-13T06:01:02;3.70;;;1.50;;
33162;SDS011;29282;45.656;11.302;2023-07-13T06:03:35;3.83;;;1.38;;
33162;SDS011;29282;45.656;11.302;2023-07-13T06:06:12;2.60;;;1.50;;
33162;SDS011;29282;45.656;11.302;2023-07-13T06:08:41;3.05;;;1.52;;
33162;SDS011;29282;45.656;11.302;2023-07-13T06:14:10;4.95;;;1.55;;
33162;SDS011;29282;45.656;11.302;2023-07-13T06:16:39;3.42;;;1.50;;
33162;SDS011;29282;45.656;11.302;2023-07-13T06:19:08;3.45;;;1.40;;
33162;SDS011;29282;45.656;11.302;2023-07-13T06:21:37;3.08;;;1.38;;
33162;SDS011;29282;45.656;11.302;2023-07-13T06:24:05;4.18;;;1.40;;
33162;SDS011;29282;45.656;11.302;2023-07-13T06:26:38;3.90;;;1.58;;
33162;SDS011;29282;45.656;11.302;2023-07-13T06:29:06;3.92;;;1.50;;
33162;SDS011;29282;45.656;11.302;2023-07-13T06:31:44;2.15;;;1.40;;
33162;SDS011;29282;45.656;11.302;2023-07-13T06:34:18;6.97;;;1.70;;
33162;SDS011;29282;45.656;11.302;2023-07-13T06:36:48;2.88;;;1.30;;
33162;SDS011;29282;45.656;11.302;2023-07-13T06:39:14;2.67;;;1.38;;
33162;SDS011;29282;45.656;11.302;2023-07-13T06:41:40;6.05;;;1.60;;
33162;SDS011;29282;45.656;11.302;2023-07-13T06:44:11;8.98;;;1.77;;
33162;SDS011;29282;45.656;11.302;2023-07-13T06:46:37;3.25;;;1.40;;
33162;SDS011;29282;45.656;11.302;2023-07-13T06:49:03;4.93;;;1.70;;
33162;SDS011;29282;45.656;11.302;2023-07-13T06:51:33;4.30;;;1.60;;
33162;SDS011;29282;45.656;11.302;2023-07-13T06:54:02;2.42;;;1.40;;
33162;SDS011;29282;45.656;11.302;2023-07-13T06:56:34;7.30;;;1.30;;
33162;SDS011;29282;45.656;11.302;2023-07-13T06:58:59;4.50;;;1.55;;
33162;SDS011;29282;45.656;11.302;2023-07-13T07:01:27;4.90;;;1.40;;
33162;SDS011;29282;45.656;11.302;2023-07-13T07:03:54;3.50;;;1.42;;
33162;SDS011;29282;45.656;11.302;2023-07-13T07:06:23;4.93;;;1.42;;
33162;SDS011;29282;45.656;11.302;2023-07-13T07:08:52;3.22;;;1.50;;
33162;SDS011;29282;45.656;11.302;2023-07-13T07:11:22;4.45;;;1.63;;
33162;SDS011;29282;45.656;11.302;2023-07-13T07:13:52;5.65;;;1.73;;
33162;SDS011;29282;45.656;11.302;2023-07-13T07:16:19;2.33;;;1.27;;
33162;SDS011;29282;45.656;11.302;2023-07-13T07:21:38;3.22;;;1.60;;
33162;SDS011;29282;45.656;11.302;2023-07-13T07:24:04;2.38;;;1.40;;
33162;SDS011;29282;45.656;11.302;2023-07-13T07:26:33;5.90;;;1.38;;
33162;SDS011;29282;45.656;11.302;2023-07-13T07:29:00;5.32;;;1.60;;
33162;SDS011;29282;45.656;11.302;2023-07-13T07:31:26;7.25;;;1.65;;
33162;SDS011;29282;45.656;11.302;2023-07-13T07:33:51;4.68;;;1.50;;
33162;SDS011;29282;45.656;11.302;2023-07-13T07:36:17;4.60;;;1.50;;
33162;SDS011;29282;45.656;11.302;2023-07-13T07:38:43;2.67;;;1.50;;
33162;SDS011;29282;45.656;11.302;2023-07-13T07:41:12;2.30;;;1.70;;
33162;SDS011;29282;45.656;11.302;2023-07-13T07:43:41;7.10;;;1.70;;
33162;SDS011;29282;45.656;11.302;2023-07-13T07:46:07;5.22;;;1.65;;
33162;SDS011;29282;45.656;11.302;2023-07-13T07:48:33;4.93;;;1.98;;
33162;SDS011;29282;45.656;11.302;2023-07-13T07:51:10;3.60;;;1.50;;
33162;SDS011;29282;45.656;11.302;2023-07-13T07:53:42;5.78;;;1.60;;
33162;SDS011;29282;45.656;11.302;2023-07-13T07:56:08;3.35;;;1.40;;
33162;SDS011;29282;45.656;11.302;2023-07-13T07:58:35;4.72;;;1.70;;
33162;SDS011;29282;45.656;11.302;2023-07-13T08:01:07;3.40;;;1.52;;
33162;SDS011;29282;45.656;11.302;2023-07-13T08:03:33;2.58;;;1.83;;
33162;SDS011;29282;45.656;11.302;2023-07-13T08:06:01;9.77;;;1.92;;
33162;SDS011;29282;45.656;11.302;2023-07-13T08:08:27;4.60;;;1.60;;
33162;SDS011;29282;45.656;11.302;2023-07-13T08:10:53;6.03;;;1.83;;
33162;SDS011;29282;45.656;11.302;2023-07-13T08:13:19;4.25;;;1.73;;
33162;SDS011;29282;45.656;11.302;2023-07-13T08:15:54;6.28;;;1.60;;
33162;SDS011;29282;45.656;11.302;2023-07-13T08:18:23;3.00;;;1.77;;
33162;SDS011;29282;45.656;11.302;2023-07-13T08:20:49;4.75;;;1.80;;
33162;SDS011;29282;45.656;11.302;2023-07-13T08:23:20;2.90;;;1.60;;
33162;SDS011;29282;45.656;11.302;2023-07-13T08:25:55;4.32;;;1.55;;
33162;SDS011;29282;45.656;11.302;2023-07-13T08:28:26;3.10;;;1.50;;
33162;SDS011;29282;45.656;11.302;2023-07-13T08:31:05;4.30;;;1.90;;
33162;SDS011;29282;45.656;11.302;2023-07-13T08:33:33;3.38;;;1.55;;
33162;SDS011;29282;45.656;11.302;2023-07-13T08:36:01;4.03;;;1.45;;
33162;SDS011;29282;45.656;11.302;2023-07-13T08:38:29;3.47;;;1.60;;
33162;SDS011;29282;45.656;11.302;2023-07-13T08:40:58;3.35;;;1.73;;
33162;SDS011;29282;45.656;11.302;2023-07-13T08:43:47;3.83;;;1.80;;
33162;SDS011;29282;45.656;11.302;2023-07-13T08:48:59;2.42;;;1.65;;
33162;SDS011;29282;45.656;11.302;2023-07-13T08:51:53;4.32;;;1.70;;
33162;SDS011;29282;45.656;11.302;2023-07-13T08:54:22;2.97;;;1.55;;
33162;SDS011;29282;45.656;11.302;2023-07-13T08:57:15;3.63;;;1.73;;
33162;SDS011;29282;45.656;11.302;2023-07-13T08:59:43;1.98;;;1.35;;
33162;SDS011;29282;45.656;11.302;2023-07-13T09:05:25;4.10;;;1.75;;
33162;SDS011;29282;45.656;11.302;2023-07-13T09:10:48;3.15;;;1.55;;
33162;SDS011;29282;45.656;11.302;2023-07-13T09:16:09;3.88;;;1.38;;
33162;SDS011;29282;45.656;11.302;2023-07-13T09:21:34;5.82;;;1.70;;
33162;SDS011;29282;45.656;11.302;2023-07-13T09:26:55;5.38;;;1.80;;
33162;SDS011;29282;45.656;11.302;2023-07-13T09:29:30;2.45;;;1.70;;
33162;SDS011;29282;45.656;11.302;2023-07-13T09:32:08;2.33;;;1.40;;
33162;SDS011;29282;45.656;11.302;2023-07-13T09:34:43;2.13;;;1.48;;
33162;SDS011;29282;45.656;11.302;2023-07-13T09:37:27;4.85;;;1.58;;
33162;SDS011;29282;45.656;11.302;2023-07-13T09:39:58;5.10;;;1.40;;
33162;SDS011;29282;45.656;11.302;2023-07-13T09:42:26;4.80;;;1.65;;
33162;SDS011;29282;45.656;11.302;2023-07-13T09:44:58;2.92;;;1.85;;
33162;SDS011;29282;45.656;11.302;2023-07-13T09:47:28;4.95;;;1.60;;
33162;SDS011;29282;45.656;11.302;2023-07-13T09:50:14;3.38;;;1.95;;
33162;SDS011;29282;45.656;11.302;2023-07-13T09:52:51;2.72;;;1.60;;
33162;SDS011;29282;45.656;11.302;2023-07-13T10:01:01;3.42;;;1.52;;
33162;SDS011;29282;45.656;11.302;2023-07-13T10:03:33;1.30;;;1.20;;
33162;SDS011;29282;45.656;11.302;2023-07-13T10:08:41;2.58;;;1.40;;
33162;SDS011;29282;45.656;11.302;2023-07-13T10:14:17;2.13;;;1.40;;
33162;SDS011;29282;45.656;11.302;2023-07-13T10:16:48;2.95;;;1.60;;
33162;SDS011;29282;45.656;11.302;2023-07-13T10:19:27;2.42;;;1.70;;
33162;SDS011;29282;45.656;11.302;2023-07-13T10:22:05;4.18;;;1.75;;
33162;SDS011;29282;45.656;11.302;2023-07-13T10:24:57;3.75;;;1.70;;
33162;SDS011;29282;45.656;11.302;2023-07-13T10:27:33;4.95;;;1.50;;
33162;SDS011;29282;45.656;11.302;2023-07-13T10:32:48;2.90;;;2.10;;
33162;SDS011;29282;45.656;11.302;2023-07-13T10:35:20;3.17;;;1.70;;
33162;SDS011;29282;45.656;11.302;2023-07-13T10:46:29;2.60;;;1.65;;
33162;SDS011;29282;45.656;11.302;2023-07-13T10:49:01;2.15;;;1.55;;
33162;SDS011;29282;45.656;11.302;2023-07-13T10:51:38;5.57;;;2.15;;
33162;SDS011;29282;45.656;11.302;2023-07-13T10:54:18;3.63;;;1.98;;
33162;SDS011;29282;45.656;11.302;2023-07-13T10:59:48;3.83;;;2.40;;
33162;SDS011;29282;45.656;11.302;2023-07-13T11:02:34;3.53;;;2.00;;
33162;SDS011;29282;45.656;11.302;2023-07-13T11:10:56;5.40;;;2.83;;
33162;SDS011;29282;45.656;11.302;2023-07-13T11:22:13;5.90;;;2.10;;
33162;SDS011;29282;45.656;11.302;2023-07-13T11:38:22;3.88;;;1.80;;
33162;SDS011;29282;45.656;11.302;2023-07-13T11:40:58;5.10;;;2.28;;
33162;SDS011;29282;45.656;11.302;2023-07-13T11:43:33;4.40;;;2.15;;
33162;SDS011;29282;45.656;11.302;2023-07-13T11:46:11;4.22;;;2.33;;
33162;SDS011;29282;45.656;11.302;2023-07-13T11:48:41;3.45;;;2.05;;
33162;SDS011;29282;45.656;11.302;2023-07-13T11:51:13;4.68;;;2.25;;
33162;SDS011;29282;45.656;11.302;2023-07-13T11:53:50;3.58;;;2.25;;
33162;SDS011;29282;45.656;11.302;2023-07-13T11:56:17;5.50;;;2.28;;
33162;SDS011;29282;45.656;11.302;2023-07-13T11:58:43;4.93;;;2.17;;
33162;SDS011;29282;45.656;11.302;2023-07-13T12:01:20;4.22;;;2.03;;
33162;SDS011;29282;45.656;11.302;2023-07-13T12:03:58;7.20;;;2.30;;
33162;SDS011;29282;45.656;11.302;2023-07-13T12:06:33;4.72;;;1.92;;
33162;SDS011;29282;45.656;11.302;2023-07-13T12:09:14;3.42;;;1.92;;
33162;SDS011;29282;45.656;11.302;2023-07-13T12:11:50;4.55;;;2.30;;
33162;SDS011;29282;45.656;11.302;2023-07-13T12:14:19;5.18;;;2.00;;
33162;SDS011;29282;45.656;11.302;2023-07-13T12:16:46;4.75;;;2.10;;
33162;SDS011;29282;45.656;11.302;2023-07-13T12:19:18;2.80;;;2.00;;
33162;SDS011;29282;45.656;11.302;2023-07-13T12:21:49;2.58;;;2.15;;
33162;SDS011;29282;45.656;11.302;2023-07-13T12:24:21;3.40;;;2.00;;
33162;SDS011;29282;45.656;11.302;2023-07-13T12:26:55;4.95;;;2.00;;
33162;SDS011;29282;45.656;11.302;2023-07-13T12:29:28;3.63;;;2.20;;
33162;SDS011;29282;45.656;11.302;2023-07-13T12:31:57;3.03;;;2.17;;
33162;SDS011;29282;45.656;11.302;2023-07-13T12:34:26;3.72;;;1.98;;
33162;SDS011;29282;45.656;11.302;2023-07-13T12:36:56;3.45;;;2.13;;
33162;SDS011;29282;45.656;11.302;2023-07-13T12:39:27;2.10;;;1.90;;
33162;SDS011;29282;45.656;11.302;2023-07-13T12:42:00;4.28;;;2.13;;
33162;SDS011;29282;45.656;11.302;2023-07-13T12:44:42;3.17;;;1.92;;
33162;SDS011;29282;45.656;11.302;2023-07-13T12:47:09;4.88;;;2.10;;
33162;SDS011;29282;45.656;11.302;2023-07-13T12:49:44;5.47;;;2.30;;
33162;SDS011;29282;45.656;11.302;2023-07-13T12:52:22;4.85;;;2.05;;
33162;SDS011;29282;45.656;11.302;2023-07-13T12:55:02;3.83;;;2.10;;
33162;SDS011;29282;45.656;11.302;2023-07-13T12:57:45;3.92;;;1.80;;
33162;SDS011;29282;45.656;11.302;2023-07-13T13:00:23;3.63;;;2.08;;
33162;SDS011;29282;45.656;11.302;2023-07-13T13:03:18;3.60;;;2.33;;
33162;SDS011;29282;45.656;11.302;2023-07-13T13:05:49;4.45;;;2.42;;
33162;SDS011;29282;45.656;11.302;2023-07-13T13:08:15;2.55;;;1.90;;
33162;SDS011;29282;45.656;11.302;2023-07-13T13:10:44;3.50;;;1.92;;
33162;SDS011;29282;45.656;11.302;2023-07-13T13:13:12;4.43;;;2.42;;
33162;SDS011;29282;45.656;11.302;2023-07-13T13:15:42;3.78;;;2.30;;
33162;SDS011;29282;45.656;11.302;2023-07-13T13:18:20;13.82;;;2.33;;
33162;SDS011;29282;45.656;11.302;2023-07-13T13:21:01;10.38;;;2.50;;
33162;SDS011;29282;45.656;11.302;2023-07-13T13:23:30;5.55;;;2.35;;
33162;SDS011;29282;45.656;11.302;2023-07-13T13:26:18;3.60;;;2.10;;
33162;SDS011;29282;45.656;11.302;2023-07-13T13:28:47;4.38;;;2.47;;
33162;SDS011;29282;45.656;11.302;2023-07-13T13:31:20;4.55;;;2.53;;
33162;SDS011;29282;45.656;11.302;2023-07-13T13:33:49;3.40;;;2.10;;
33162;SDS011;29282;45.656;11.302;2023-07-13T13:36:27;5.20;;;2.35;;
33162;SDS011;29282;45.656;11.302;2023-07-13T13:39:01;4.65;;;2.20;;
33162;SDS011;29282;45.656;11.302;2023-07-13T13:41:29;3.30;;;2.30;;
33162;SDS011;29282;45.656;11.302;2023-07-13T13:44:01;6.50;;;3.13;;
33162;SDS011;29282;45.656;11.302;2023-07-13T13:46:33;7.30;;;2.35;;
33162;SDS011;29282;45.656;11.302;2023-07-13T13:49:02;5.68;;;2.30;;
33162;SDS011;29282;45.656;11.302;2023-07-13T13:51:28;3.65;;;2.30;;
33162;SDS011;29282;45.656;11.302;2023-07-13T13:53:55;4.97;;;2.30;;
33162;SDS011;29282;45.656;11.302;2023-07-13T13:56:23;4.18;;;2.22;;
33162;SDS011;29282;45.656;11.302;2023-07-13T13:58:51;2.30;;;2.08;;
33162;SDS011;29282;45.656;11.302;2023-07-13T14:01:22;6.80;;;2.03;;
33162;SDS011;29282;45.656;11.302;2023-07-13T14:03:51;2.97;;;2.08;;
33162;SDS011;29282;45.656;11.302;2023-07-13T14:06:21;3.92;;;2.50;;
33162;SDS011;29282;45.656;11.302;2023-07-13T14:08:47;2.72;;;2.20;;
33162;SDS011;29282;45.656;11.302;2023-07-13T14:11:16;4.10;;;2.17;;
33162;SDS011;29282;45.656;11.302;2023-07-13T14:13:49;5.40;;;2.25;;
33162;SDS011;29282;45.656;11.302;2023-07-13T14:16:22;4.07;;;2.10;;
33162;SDS011;29282;45.656;11.302;2023-07-13T14:18:57;2.53;;;2.05;;
33162;SDS011;29282;45.656;11.302;2023-07-13T14:21:35;4.32;;;2.53;;
33162;SDS011;29282;45.656;11.302;2023-07-13T14:24:04;8.18;;;2.22;;
33162;SDS011;29282;45.656;11.302;2023-07-13T14:26:36;2.55;;;2.10;;
33162;SDS011;29282;45.656;11.302;2023-07-13T14:29:20;5.40;;;2.50;;
33162;SDS011;29282;45.656;11.302;2023-07-13T14:31:47;4.65;;;1.90;;
33162;SDS011;29282;45.656;11.302;2023-07-13T14:34:16;3.83;;;2.40;;
33162;SDS011;29282;45.656;11.302;2023-07-13T14:37:00;3.45;;;2.42;;
33162;SDS011;29282;45.656;11.302;2023-07-13T14:39:26;3.65;;;1.85;;
33162;SDS011;29282;45.656;11.302;2023-07-13T14:41:54;3.50;;;1.95;;
33162;SDS011;29282;45.656;11.302;2023-07-13T14:44:29;2.83;;;2.08;;
33162;SDS011;29282;45.656;11.302;2023-07-13T14:46:59;3.83;;;2.22;;
33162;SDS011;29282;45.656;11.302;2023-07-13T14:49:32;7.45;;;2.55;;
33162;SDS011;29282;45.656;11.302;2023-07-13T14:52:14;6.97;;;2.85;;
33162;SDS011;29282;45.656;11.302;2023-07-13T14:54:55;4.07;;;2.17;;
33162;SDS011;29282;45.656;11.302;2023-07-13T14:57:21;2.50;;;1.90;;
33162;SDS011;29282;45.656;11.302;2023-07-13T14:59:48;2.78;;;2.13;;
33162;SDS011;29282;45.656;11.302;2023-07-13T15:02:31;3.13;;;2.00;;
33162;SDS011;29282;45.656;11.302;2023-07-13T15:05:11;3.13;;;2.22;;
33162;SDS011;29282;45.656;11.302;2023-07-13T15:07:44;2.53;;;1.98;;
33162;SDS011;29282;45.656;11.302;2023-07-13T15:10:17;3.58;;;2.10;;
33162;SDS011;29282;45.656;11.302;2023-07-13T15:12:50;3.17;;;2.25;;
33162;SDS011;29282;45.656;11.302;2023-07-13T15:15:17;3.67;;;2.25;;
33162;SDS011;29282;45.656;11.302;2023-07-13T15:17:43;3.22;;;2.15;;
33162;SDS011;29282;45.656;11.302;2023-07-13T15:22:55;3.22;;;2.00;;
33162;SDS011;29282;45.656;11.302;2023-07-13T15:25:26;7.82;;;2.35;;
33162;SDS011;29282;45.656;11.302;2023-07-13T15:27:56;5.93;;;2.38;;
33162;SDS011;29282;45.656;11.302;2023-07-13T15:30:25;7.32;;;2.90;;
33162;SDS011;29282;45.656;11.302;2023-07-13T15:33:09;6.40;;;3.08;;
33162;SDS011;29282;45.656;11.302;2023-07-13T15:35:38;7.93;;;3.17;;
33162;SDS011;29282;45.656;11.302;2023-07-13T15:38:25;7.13;;;2.72;;
33162;SDS011;29282;45.656;11.302;2023-07-13T15:41:24;4.60;;;2.63;;
33162;SDS011;29282;45.656;11.302;2023-07-13T15:43:52;4.15;;;2.67;;
33162;SDS011;29282;45.656;11.302;2023-07-13T15:46:23;5.30;;;2.80;;
33162;SDS011;29282;45.656;11.302;2023-07-13T15:48:51;6.82;;;2.97;;
33162;SDS011;29282;45.656;11.302;2023-07-13T15:51:20;6.45;;;2.50;;
33162;SDS011;29282;45.656;11.302;2023-07-13T15:53:55;8.43;;;2.40;;
33162;SDS011;29282;45.656;11.302;2023-07-13T15:56:46;4.65;;;2.40;;
33162;SDS011;29282;45.656;11.302;2023-07-13T15:59:32;5.47;;;2.53;;
33162;SDS011;29282;45.656;11.302;2023-07-13T16:02:04;4.97;;;2.38;;
33162;SDS011;29282;45.656;11.302;2023-07-13T16:04:38;5.80;;;2.47;;
33162;SDS011;29282;45.656;11.302;2023-07-13T16:07:18;6.50;;;2.85;;
33162;SDS011;29282;45.656;11.302;2023-07-13T16:09:51;4.55;;;2.50;;
33162;SDS011;29282;45.656;11.302;2023-07-13T16:12:17;6.72;;;2.42;;
33162;SDS011;29282;45.656;11.302;2023-07-13T16:14:46;5.28;;;2.60;;
33162;SDS011;29282;45.656;11.302;2023-07-13T16:17:13;6.05;;;2.88;;
33162;SDS011;29282;45.656;11.302;2023-07-13T16:19:41;5.38;;;2.22;;
33162;SDS011;29282;45.656;11.302;2023-07-13T16:22:17;6.22;;;2.33;;